Time;durP1;ratioP1;P1;durP2;ratioP2;P2;SDS_P1;SDS_P2;PMS_P1;PMS_P2;Temp;Humidity;BMP_temperature;BMP_pressure;BME280_temperature;BME280_humidity;BME280_pressure;Samples;Min_cycle;Max_cycle;Signal;HPM_P1;HPM_P2
2023/08/03 00:02:22;;;;;;;5.40;0.98;;;16.10;99.90;;;;;;4970457;28;20057;-68
2023/08/03 00:04:48;;;;;;;4.95;1.30;;;16.10;99.90;;;;;;4971318;28;20641;-68
2023/08/03 00:07:13;;;;;;;3.13;1.08;;;16.10;99.90;;;;;;4970385;28;20054;-67
2023/08/03 00:09:40;;;;;;;6.05;0.80;;;16.10;99.90;;;;;;4972350;28;20042;-67
2023/08/03 00:12:06;;;;;;;6.15;1.17;;;16.10;99.90;;;;;;4953568;28;20039;-67
2023/08/03 00:14:32;;;;;;;5.47;1.23;;;16.10;99.90;;;;;;4971823;28;20047;-67
2023/08/03 00:16:57;;;;;;;4.45;1.58;;;16.10;99.90;;;;;;4951873;28;20060;-68
2023/08/03 00:19:23;;;;;;;2.90;0.90;;;16.10;99.90;;;;;;4971320;28;20034;-68
2023/08/03 00:21:48;;;;;;;4.32;0.93;;;16.10;99.90;;;;;;4968977;28;20129;-68
2023/08/03 00:24:14;;;;;;;5.85;1.50;;;16.20;99.90;;;;;;4968746;28;20043;-68
2023/08/03 00:26:40;;;;;;;4.10;1.10;;;16.10;99.90;;;;;;4970709;28;20896;-68
2023/08/03 00:29:05;;;;;;;6.63;1.35;;;16.10;99.90;;;;;;4969463;28;20053;-68
2023/08/03 00:31:31;;;;;;;5.80;0.80;;;16.20;99.90;;;;;;4951352;28;20033;-68
2023/08/03 00:33:56;;;;;;;4.72;0.90;;;16.10;99.90;;;;;;4951118;28;20787;-68
2023/08/03 00:36:22;;;;;;;4.53;0.82;;;16.10;99.90;;;;;;4970159;28;20031;-67
2023/08/03 00:38:47;;;;;;;7.03;0.90;;;16.10;99.90;;;;;;4966726;28;20129;-68
2023/08/03 00:41:13;;;;;;;3.95;0.80;;;16.10;99.90;;;;;;4936934;28;20051;-67
2023/08/03 00:43:39;;;;;;;4.95;0.93;;;16.10;99.90;;;;;;4972190;28;20424;-67
2023/08/03 00:46:04;;;;;;;5.05;0.82;;;16.10;99.90;;;;;;4970992;28;20038;-67
2023/08/03 00:48:30;;;;;;;2.17;0.70;;;16.10;99.90;;;;;;4951947;28;20050;-67
2023/08/03 00:50:56;;;;;;;2.13;0.50;;;16.10;99.90;;;;;;4970799;28;20037;-67
2023/08/03 00:53:22;;;;;;;4.50;0.68;;;16.10;99.90;;;;;;4971451;28;20066;-67
2023/08/03 00:55:48;;;;;;;3.95;0.70;;;16.00;99.90;;;;;;4952832;28;20047;-68
2023/08/03 00:58:13;;;;;;;1.50;0.40;;;16.10;99.90;;;;;;4967583;28;20037;-67
2023/08/03 01:00:39;;;;;;;2.20;0.63;;;16.10;99.90;;;;;;4970917;28;20825;-67
2023/08/03 01:03:05;;;;;;;2.92;0.50;;;16.10;99.90;;;;;;4949337;28;20066;-67
2023/08/03 01:05:32;;;;;;;2.28;0.55;;;16.10;99.90;;;;;;4969476;28;20086;-67
2023/08/03 01:07:58;;;;;;;3.67;0.80;;;16.10;99.90;;;;;;4951102;28;20055;-67
2023/08/03 01:10:25;;;;;;;5.25;1.05;;;16.00;99.90;;;;;;4969518;28;21023;-67
2023/08/03 01:12:51;;;;;;;1.30;0.52;;;16.00;99.90;;;;;;4952072;28;20039;-67
2023/08/03 01:15:17;;;;;;;2.95;0.57;;;16.10;99.90;;;;;;4971128;28;20041;-67
2023/08/03 01:17:42;;;;;;;2.28;0.50;;;16.10;99.90;;;;;;4967890;28;20043;-68
2023/08/03 01:20:08;;;;;;;3.55;0.40;;;16.10;99.90;;;;;;4969285;28;20038;-68
2023/08/03 01:22:44;;;;;;;2.08;0.70;;;16.10;99.90;;;;;;4949909;28;20035;-68
2023/08/03 01:25:11;;;;;;;1.05;0.38;;;16.10;99.90;;;;;;4953203;28;20034;-67
2023/08/03 01:27:36;;;;;;;3.45;0.55;;;16.10;99.90;;;;;;4964944;28;20410;-67
2023/08/03 01:30:03;;;;;;;2.25;0.63;;;16.10;99.90;;;;;;4950211;28;20042;-67
2023/08/03 01:32:29;;;;;;;2.90;0.55;;;16.10;99.90;;;;;;4967580;28;20030;-67
2023/08/03 01:34:55;;;;;;;4.72;0.50;;;16.10;99.90;;;;;;4966928;28;20045;-67
2023/08/03 01:37:20;;;;;;;3.30;0.75;;;16.10;99.90;;;;;;4947216;28;20054;-67
2023/08/03 01:39:46;;;;;;;4.50;1.10;;;16.10;99.90;;;;;;4949959;28;20520;-67
2023/08/03 01:42:14;;;;;;;2.35;0.60;;;16.20;99.90;;;;;;4954001;28;20134;-67
2023/08/03 01:44:41;;;;;;;2.70;0.70;;;16.10;99.90;;;;;;4950508;28;20922;-67
2023/08/03 01:47:07;;;;;;;3.08;0.63;;;16.10;99.90;;;;;;4949109;28;20134;-67
2023/08/03 01:49:33;;;;;;;4.38;0.70;;;16.20;99.90;;;;;;4971069;28;20041;-67
2023/08/03 01:51:59;;;;;;;3.75;0.88;;;16.20;99.90;;;;;;4970798;28;20081;-67
2023/08/03 01:54:25;;;;;;;2.67;0.45;;;16.10;99.90;;;;;;4950346;28;20429;-67
2023/08/03 01:56:53;;;;;;;3.30;0.63;;;16.20;99.90;;;;;;4969906;28;20871;-67
2023/08/03 01:59:19;;;;;;;2.20;0.90;;;16.20;99.90;;;;;;4968370;28;20093;-67
2023/08/03 02:01:44;;;;;;;3.67;0.57;;;16.20;99.90;;;;;;4968218;28;20118;-68
2023/08/03 02:04:10;;;;;;;1.50;0.57;;;16.20;99.90;;;;;;4967049;28;20042;-67
2023/08/03 02:06:36;;;;;;;3.58;0.50;;;16.20;99.90;;;;;;4948607;28;20097;-68
2023/08/03 02:09:04;;;;;;;3.13;0.70;;;16.20;99.90;;;;;;4969470;28;20043;-68
2023/08/03 02:11:29;;;;;;;3.45;1.00;;;16.20;99.90;;;;;;4970067;28;20437;-68
2023/08/03 02:13:55;;;;;;;4.10;0.70;;;16.20;99.90;;;;;;4966557;28;20043;-68
2023/08/03 02:16:20;;;;;;;1.95;0.82;;;16.20;99.90;;;;;;4967117;28;20034;-68
2023/08/03 02:18:46;;;;;;;6.18;0.90;;;16.20;99.90;;;;;;4967860;28;20039;-68
2023/08/03 02:21:12;;;;;;;2.10;0.77;;;16.20;99.90;;;;;;4970320;28;20169;-68
2023/08/03 02:23:37;;;;;;;1.92;0.93;;;16.20;99.90;;;;;;4969033;28;20062;-67
2023/08/03 02:26:03;;;;;;;2.63;0.85;;;16.20;99.90;;;;;;4952689;28;20076;-67
2023/08/03 02:28:30;;;;;;;3.03;0.82;;;16.20;99.90;;;;;;4967196;28;20580;-67
2023/08/03 02:30:55;;;;;;;2.30;0.90;;;16.20;99.90;;;;;;4969246;28;20413;-67
2023/08/03 02:33:21;;;;;;;6.30;1.48;;;16.30;99.90;;;;;;4950697;28;20038;-67
2023/08/03 02:35:47;;;;;;;2.08;1.20;;;16.20;99.90;;;;;;4965551;28;20121;-68
2023/08/03 02:38:12;;;;;;;3.13;1.52;;;16.20;99.90;;;;;;4950989;28;20042;-68
2023/08/03 02:40:38;;;;;;;3.17;1.58;;;16.20;99.90;;;;;;4968642;28;20035;-68
2023/08/03 02:43:03;;;;;;;4.85;1.75;;;16.20;99.90;;;;;;4949442;28;20536;-68
2023/08/03 02:45:29;;;;;;;2.97;1.85;;;16.20;99.90;;;;;;4965953;28;20053;-67
2023/08/03 02:47:55;;;;;;;6.50;1.88;;;16.20;99.90;;;;;;4950732;28;20070;-67
2023/08/03 02:50:21;;;;;;;3.05;2.00;;;16.20;99.90;;;;;;4968524;28;20051;-67
2023/08/03 02:52:47;;;;;;;2.58;1.98;;;16.30;99.90;;;;;;4969299;28;20049;-67
2023/08/03 02:55:13;;;;;;;4.55;2.80;;;16.20;99.90;;;;;;4948250;28;20046;-67
2023/08/03 02:57:38;;;;;;;7.78;2.80;;;16.30;99.90;;;;;;4949914;28;20137;-68
2023/08/03 03:00:05;;;;;;;6.38;2.97;;;16.30;99.90;;;;;;4952551;28;20068;-68
2023/08/03 03:02:31;;;;;;;6.53;3.10;;;16.30;99.90;;;;;;4968097;28;20050;-67
2023/08/03 03:04:57;;;;;;;6.07;2.90;;;16.30;99.90;;;;;;4968417;28;20051;-67
2023/08/03 03:07:22;;;;;;;6.65;3.30;;;16.40;99.90;;;;;;4965045;28;20050;-68
2023/08/03 03:09:48;;;;;;;4.32;2.50;;;16.40;99.90;;;;;;4966801;28;20385;-68
2023/08/03 03:12:13;;;;;;;8.88;3.42;;;16.40;99.90;;;;;;4950943;28;20115;-68
2023/08/03 03:14:39;;;;;;;7.28;3.13;;;16.40;99.90;;;;;;4951137;28;20058;-68
2023/08/03 03:17:04;;;;;;;11.63;3.92;;;16.40;99.90;;;;;;4965760;28;20039;-68
2023/08/03 03:19:30;;;;;;;9.85;4.07;;;16.40;99.90;;;;;;4966583;28;20093;-68
2023/08/03 03:21:56;;;;;;;11.10;3.97;;;16.40;99.90;;;;;;4948418;28;20401;-68
2023/08/03 03:24:21;;;;;;;10.05;3.60;;;16.50;99.90;;;;;;4966014;28;20035;-68
2023/08/03 03:26:47;;;;;;;12.35;3.95;;;16.50;99.90;;;;;;4952005;28;20039;-68
2023/08/03 03:29:13;;;;;;;9.10;4.47;;;16.50;99.90;;;;;;4953160;28;20039;-68
2023/08/03 03:31:38;;;;;;;11.02;4.20;;;16.40;99.90;;;;;;4969633;28;20046;-67
2023/08/03 03:34:04;;;;;;;10.48;3.38;;;16.50;99.90;;;;;;4970605;28;20474;-68
2023/08/03 03:36:30;;;;;;;13.75;4.47;;;16.50;99.90;;;;;;4963982;28;20114;-68
2023/08/03 03:38:55;;;;;;;9.80;3.80;;;16.40;99.90;;;;;;4966765;28;20512;-68
2023/08/03 03:41:21;;;;;;;8.30;3.30;;;16.40;99.90;;;;;;4954374;28;20046;-67
2023/08/03 03:43:46;;;;;;;14.38;4.78;;;16.40;99.90;;;;;;4955323;28;20090;-67
2023/08/03 03:46:12;;;;;;;7.45;4.10;;;16.40;99.90;;;;;;4968540;28;20039;-67
2023/08/03 03:48:38;;;;;;;13.20;3.50;;;16.40;99.90;;;;;;4971167;28;20086;-68
2023/08/03 03:51:03;;;;;;;14.98;4.05;;;16.30;99.90;;;;;;4953440;28;20038;-68
2023/08/03 03:53:29;;;;;;;14.00;3.92;;;16.30;99.90;;;;;;4954090;28;20050;-68
2023/08/03 03:55:54;;;;;;;12.63;3.97;;;16.30;99.90;;;;;;4970237;28;20492;-68
2023/08/03 03:58:20;;;;;;;18.35;4.07;;;16.30;99.90;;;;;;4964017;28;20042;-67
2023/08/03 04:00:46;;;;;;;18.60;4.13;;;16.20;99.90;;;;;;4968431;28;20480;-67
2023/08/03 04:03:11;;;;;;;12.30;3.88;;;16.20;99.90;;;;;;4972124;28;20026;-67
2023/08/03 04:05:37;;;;;;;16.00;3.67;;;16.10;99.90;;;;;;4952373;28;20482;-67
2023/08/03 04:08:03;;;;;;;11.55;3.35;;;16.20;99.90;;;;;;4962538;28;20043;-68
2023/08/03 04:10:30;;;;;;;17.40;3.83;;;16.20;99.90;;;;;;4953648;28;20125;-68
2023/08/03 04:12:55;;;;;;;15.68;3.63;;;16.20;99.90;;;;;;4970553;28;20150;-67
2023/08/03 04:15:21;;;;;;;10.25;3.90;;;16.20;99.90;;;;;;4967119;28;20165;-68
2023/08/03 04:17:48;;;;;;;21.42;3.88;;;16.30;99.90;;;;;;4953064;28;20069;-68
2023/08/03 04:20:15;;;;;;;16.98;3.78;;;16.30;99.90;;;;;;4951948;28;20078;-68
2023/08/03 04:22:41;;;;;;;16.08;4.07;;;16.30;99.90;;;;;;4951256;28;20696;-68
2023/08/03 04:25:07;;;;;;;16.50;3.42;;;16.30;99.90;;;;;;4966491;28;20039;-68
2023/08/03 04:27:33;;;;;;;12.80;3.47;;;16.30;99.90;;;;;;4971152;28;20045;-68
2023/08/03 04:29:58;;;;;;;19.42;3.25;;;16.20;99.90;;;;;;4968149;28;20034;-68
2023/08/03 04:32:24;;;;;;;14.48;3.50;;;16.20;99.90;;;;;;4952045;28;20094;-67
2023/08/03 04:34:50;;;;;;;19.38;3.20;;;16.20;99.90;;;;;;4966396;28;20043;-68
2023/08/03 04:37:15;;;;;;;14.02;2.42;;;16.20;99.90;;;;;;4963733;28;20047;-68
2023/08/03 04:39:41;;;;;;;13.82;2.55;;;16.20;99.90;;;;;;4964572;28;20122;-67
2023/08/03 04:42:06;;;;;;;16.92;3.80;;;16.20;99.90;;;;;;4950364;28;20050;-68
2023/08/03 04:44:32;;;;;;;12.63;2.85;;;16.20;99.90;;;;;;4966771;28;20489;-68
2023/08/03 04:46:58;;;;;;;15.20;2.50;;;16.20;99.90;;;;;;4966218;28;20125;-68
2023/08/03 04:49:25;;;;;;;13.82;3.53;;;16.20;99.90;;;;;;4950953;28;20069;-68
2023/08/03 04:51:51;;;;;;;17.38;4.28;;;16.30;99.90;;;;;;4951001;28;20138;-68
2023/08/03 04:54:17;;;;;;;13.93;2.65;;;16.40;99.90;;;;;;4950143;28;20134;-68
2023/08/03 04:56:42;;;;;;;14.32;3.15;;;16.30;99.90;;;;;;4966650;28;20480;-67
2023/08/03 04:59:08;;;;;;;14.05;2.65;;;16.30;99.90;;;;;;4948355;28;20536;-67
2023/08/03 05:01:33;;;;;;;16.05;2.30;;;16.40;99.90;;;;;;4967614;28;20039;-68
2023/08/03 05:04:02;;;;;;;8.07;2.05;;;16.40;99.90;;;;;;4969540;28;20042;-68
2023/08/03 05:06:28;;;;;;;13.68;2.40;;;16.40;99.90;;;;;;4965576;28;20026;-68
2023/08/03 05:08:54;;;;;;;13.43;1.90;;;16.40;99.90;;;;;;4947641;28;20109;-68
2023/08/03 05:11:19;;;;;;;11.30;2.75;;;16.40;99.90;;;;;;4950381;28;20046;-68
2023/08/03 05:13:45;;;;;;;12.73;2.20;;;16.40;99.90;;;;;;4971546;28;20042;-68
2023/08/03 05:16:10;;;;;;;20.10;2.15;;;16.50;99.90;;;;;;4952139;28;20492;-68
2023/08/03 05:18:36;;;;;;;11.30;2.67;;;16.50;99.90;;;;;;4969910;28;20049;-68
2023/08/03 05:21:02;;;;;;;13.20;2.65;;;16.60;99.90;;;;;;4948429;28;20093;-68
2023/08/03 05:23:28;;;;;;;11.70;3.15;;;16.70;99.90;;;;;;4948811;28;20117;-68
2023/08/03 05:25:57;;;;;;;11.23;2.15;;;16.80;99.90;;;;;;4947368;28;20043;-68
2023/08/03 05:28:24;;;;;;;6.68;1.77;;;16.80;99.90;;;;;;4969041;28;20035;-68
2023/08/03 05:30:50;;;;;;;12.75;2.50;;;16.90;99.90;;;;;;4969334;28;20872;-68
2023/08/03 05:33:16;;;;;;;8.73;3.40;;;17.00;99.90;;;;;;4971451;28;20046;-68
2023/08/03 05:35:42;;;;;;;11.50;1.83;;;17.10;99.90;;;;;;4952502;28;20038;-68
2023/08/03 05:38:08;;;;;;;6.43;1.77;;;17.10;99.90;;;;;;4970330;28;20043;-68
2023/08/03 05:40:34;;;;;;;9.68;1.85;;;17.10;99.90;;;;;;4949784;28;20367;-68
2023/08/03 05:42:59;;;;;;;10.20;1.73;;;17.20;99.90;;;;;;4952364;28;20126;-68
2023/08/03 05:45:43;;;;;;;9.77;1.98;;;17.20;99.90;;;;;;4964895;28;20043;-68
2023/08/03 05:48:13;;;;;;;7.50;1.58;;;17.20;99.90;;;;;;4967005;28;20429;-68
2023/08/03 05:50:46;;;;;;;9.68;2.13;;;17.20;99.90;;;;;;4969528;28;20888;-68
2023/08/03 05:53:12;;;;;;;7.93;1.75;;;17.20;99.90;;;;;;4970272;28;20397;-68
2023/08/03 05:55:38;;;;;;;13.98;2.08;;;17.40;99.90;;;;;;4952777;28;20370;-68
2023/08/03 05:58:05;;;;;;;12.05;2.65;;;17.40;99.90;;;;;;4968055;28;20421;-68
2023/08/03 06:00:32;;;;;;;10.00;1.65;;;17.50;99.90;;;;;;4968010;28;20146;-68
2023/08/03 06:02:58;;;;;;;9.48;1.85;;;17.60;99.90;;;;;;4969499;28;20492;-68
2023/08/03 06:05:49;;;;;;;8.23;1.92;;;17.60;99.90;;;;;;4967244;28;20525;-68
2023/08/03 06:08:18;;;;;;;7.50;1.67;;;18.00;99.90;;;;;;4951250;28;20039;-68
2023/08/03 06:10:52;;;;;;;7.28;1.63;;;18.60;99.90;;;;;;4969453;28;20038;-68
2023/08/03 06:13:20;;;;;;;5.80;1.67;;;18.70;99.90;;;;;;4953053;28;20066;-68
2023/08/03 06:15:47;;;;;;;9.95;1.27;;;18.80;99.90;;;;;;4966755;28;20054;-68
2023/08/03 06:18:17;;;;;;;6.00;1.52;;;18.80;99.90;;;;;;4961475;28;20408;-68
2023/08/03 06:20:50;;;;;;;7.07;2.10;;;18.70;99.90;;;;;;4968257;28;20114;-69
2023/08/03 06:23:34;;;;;;;9.77;1.50;;;18.60;99.90;;;;;;4964940;28;20061;-68
2023/08/03 06:26:00;;;;;;;6.13;1.10;;;18.50;99.90;;;;;;4953668;28;20046;-68
2023/08/03 06:28:25;;;;;;;8.50;2.40;;;18.50;99.90;;;;;;4945644;28;20051;-68
2023/08/03 06:30:52;;;;;;;6.75;1.98;;;18.60;99.90;;;;;;4965667;28;20089;-68
2023/08/03 06:33:21;;;;;;;8.43;1.30;;;19.00;99.90;;;;;;4968647;28;20086;-68
2023/08/03 06:35:50;;;;;;;7.28;0.82;;;19.20;99.90;;;;;;4965759;28;20035;-68
2023/08/03 06:38:16;;;;;;;10.40;1.52;;;19.20;99.90;;;;;;4948665;28;20141;-68
2023/08/03 06:40:44;;;;;;;7.00;1.38;;;19.00;99.90;;;;;;4948056;28;20082;-68
2023/08/03 06:43:11;;;;;;;8.32;1.45;;;18.90;99.90;;;;;;4949846;28;20047;-68
2023/08/03 06:45:38;;;;;;;6.25;1.02;;;18.80;99.90;;;;;;4963991;28;20042;-68
2023/08/03 06:48:04;;;;;;;7.43;1.17;;;18.70;99.90;;;;;;4948920;28;20050;-68
2023/08/03 06:50:31;;;;;;;6.45;1.10;;;18.70;99.90;;;;;;4963822;28;20046;-68
2023/08/03 06:52:57;;;;;;;6.40;1.27;;;18.90;99.90;;;;;;4952638;28;20049;-68
2023/08/03 06:55:23;;;;;;;6.97;1.15;;;19.50;99.90;;;;;;4968576;28;20035;-68
2023/08/03 06:57:49;;;;;;;6.55;1.25;;;20.30;99.90;;;;;;4970053;28;20039;-68
2023/08/03 07:00:16;;;;;;;4.35;1.50;;;21.50;99.90;;;;;;4964865;28;20026;-68
2023/08/03 07:02:42;;;;;;;4.63;1.15;;;22.60;99.90;;;;;;4954558;28;20046;-69
2023/08/03 07:05:08;;;;;;;5.00;0.63;;;23.60;99.90;;;;;;4952924;28;20999;-69
2023/08/03 07:07:34;;;;;;;2.95;0.80;;;24.30;99.90;;;;;;4972027;28;20035;-69
2023/08/03 07:10:00;;;;;;;1.83;0.50;;;24.10;99.90;;;;;;4953092;28;20052;-69
2023/08/03 07:12:28;;;;;;;5.60;0.77;;;24.30;99.90;;;;;;4953064;28;20043;-69
2023/08/03 07:14:55;;;;;;;2.55;0.50;;;24.50;99.90;;;;;;4951813;28;20047;-69
2023/08/03 07:17:21;;;;;;;2.53;0.60;;;25.00;99.90;;;;;;4952039;28;20100;-69
2023/08/03 07:19:51;;;;;;;3.05;0.60;;;25.30;99.90;;;;;;4972416;28;20130;-69
2023/08/03 07:22:17;;;;;;;4.53;0.85;;;24.80;99.90;;;;;;4971010;28;20042;-69
2023/08/03 07:24:43;;;;;;;3.58;0.73;;;24.10;99.90;;;;;;4954109;28;20380;-69
2023/08/03 07:27:09;;;;;;;9.23;1.40;;;23.30;99.90;;;;;;4967933;28;20138;-68
2023/08/03 07:29:34;;;;;;;5.22;1.25;;;22.70;99.90;;;;;;4967168;28;20066;-68
2023/08/03 07:32:00;;;;;;;3.70;0.45;;;22.40;99.90;;;;;;4970017;28;20039;-68
2023/08/03 07:34:26;;;;;;;3.08;0.77;;;22.80;99.90;;;;;;4964427;28;20383;-68
2023/08/03 07:36:56;;;;;;;2.92;0.60;;;23.20;99.90;;;;;;4955181;28;20097;-69
2023/08/03 07:39:21;;;;;;;2.15;0.40;;;23.30;99.90;;;;;;4967173;28;20125;-68
2023/08/03 07:41:47;;;;;;;5.40;0.88;;;23.20;99.90;;;;;;4970374;28;20458;-68
2023/08/03 07:44:15;;;;;;;2.40;0.57;;;22.80;99.90;;;;;;4951742;28;20054;-68
2023/08/03 07:46:41;;;;;;;3.00;0.40;;;22.60;99.90;;;;;;4968724;28;20050;-68
2023/08/03 07:49:06;;;;;;;5.78;1.05;;;22.00;99.90;;;;;;4966396;28;20043;-68
2023/08/03 07:51:32;;;;;;;2.47;0.43;;;21.60;99.90;;;;;;4951101;28;20047;-68
2023/08/03 07:53:58;;;;;;;2.75;0.80;;;21.50;99.90;;;;;;4967514;28;20053;-68
2023/08/03 07:56:23;;;;;;;2.58;0.45;;;21.80;99.90;;;;;;4971023;28;20142;-68
2023/08/03 07:58:50;;;;;;;3.17;0.40;;;21.80;99.90;;;;;;4950750;28;20039;-68
2023/08/03 08:01:17;;;;;;;2.33;0.68;;;21.90;99.90;;;;;;4953229;28;20042;-68
2023/08/03 08:03:43;;;;;;;2.85;0.60;;;21.80;99.90;;;;;;4968958;28;20045;-68
2023/08/03 08:06:16;;;;;;;3.42;0.47;;;21.60;99.90;;;;;;4953807;28;20046;-68
2023/08/03 08:08:43;;;;;;;3.25;0.68;;;21.40;99.90;;;;;;4963566;28;20093;-68
2023/08/03 08:11:09;;;;;;;4.60;0.60;;;21.30;99.90;;;;;;4968536;28;20039;-68
2023/08/03 08:13:35;;;;;;;2.28;0.40;;;21.10;99.90;;;;;;4970021;28;20050;-68
2023/08/03 08:16:03;;;;;;;2.67;0.40;;;20.80;99.90;;;;;;4969137;28;21693;-68
2023/08/03 08:18:29;;;;;;;3.42;0.45;;;20.90;99.90;;;;;;4948249;28;20133;-68
2023/08/03 08:20:57;;;;;;;4.32;0.50;;;21.00;99.90;;;;;;4969373;28;20505;-68
2023/08/03 08:23:22;;;;;;;2.50;0.40;;;21.30;99.90;;;;;;4953086;28;20051;-68
2023/08/03 08:25:48;;;;;;;1.67;0.40;;;21.30;99.90;;;;;;4968827;28;20062;-68
2023/08/03 08:28:14;;;;;;;3.67;0.60;;;21.50;99.90;;;;;;4967734;28;20073;-68
2023/08/03 08:30:39;;;;;;;5.50;0.50;;;21.70;99.90;;;;;;4951647;28;20042;-68
2023/08/03 08:33:05;;;;;;;5.10;0.65;;;21.90;99.90;;;;;;4972084;28;20062;-68
2023/08/03 08:35:31;;;;;;;1.42;0.30;;;22.20;99.90;;;;;;4950325;28;20166;-68
2023/08/03 08:37:59;;;;;;;2.85;0.38;;;22.40;99.90;;;;;;4948875;28;20055;-68
2023/08/03 08:40:28;;;;;;;3.30;0.75;;;22.60;99.90;;;;;;4967581;28;20045;-68
2023/08/03 08:42:55;;;;;;;2.78;0.80;;;22.70;99.90;;;;;;4966932;28;20078;-69
2023/08/03 08:45:21;;;;;;;2.53;0.52;;;22.80;99.90;;;;;;4950516;28;20050;-68
2023/08/03 08:47:47;;;;;;;1.27;0.40;;;22.80;99.90;;;;;;4947896;28;20051;-68
2023/08/03 08:50:14;;;;;;;3.28;0.50;;;22.80;99.90;;;;;;4950120;28;20030;-69
2023/08/03 08:52:42;;;;;;;4.15;0.80;;;22.90;99.90;;;;;;4951576;28;20038;-68
2023/08/03 08:55:20;;;;;;;3.30;0.40;;;22.90;99.90;;;;;;4947750;28;20043;-68
2023/08/03 08:57:46;;;;;;;1.65;0.47;;;22.90;99.90;;;;;;4964570;28;20126;-68
2023/08/03 09:00:12;;;;;;;2.22;0.32;;;22.70;99.90;;;;;;4949722;28;20134;-68
2023/08/03 09:02:38;;;;;;;2.10;0.50;;;22.60;99.90;;;;;;4949450;28;20568;-68
2023/08/03 09:05:25;;;;;;;2.22;0.40;;;22.80;99.90;;;;;;4970252;28;20045;-68
2023/08/03 09:08:21;;;;;;;3.90;0.65;;;22.90;99.90;;;;;;4969199;28;20109;-68
2023/08/03 09:10:54;;;;;;;2.25;0.40;;;22.70;99.90;;;;;;4955681;28;20058;-68
2023/08/03 09:13:31;;;;;;;3.72;0.40;;;22.60;99.90;;;;;;4968475;28;20035;-68
2023/08/03 09:15:57;;;;;;;2.25;0.35;;;22.50;99.90;;;;;;4961128;28;20047;-68
2023/08/03 09:18:27;;;;;;;6.07;0.50;;;22.30;99.90;;;;;;4936946;29;20071;-68
2023/08/03 09:21:08;;;;;;;6.55;0.55;;;22.10;99.90;;;;;;4954656;29;20075;-69
2023/08/03 09:27:17;;;;;;;1.90;0.40;;;22.30;99.90;;;;;;4953785;29;20054;-68
2023/08/03 09:29:43;;;;;;;2.47;0.30;;;22.40;99.90;;;;;;4953173;29;20036;-68
2023/08/03 09:32:12;;;;;;;4.40;0.50;;;22.10;99.90;;;;;;4954180;29;20039;-68
2023/08/03 09:34:39;;;;;;;4.30;0.40;;;21.90;99.90;;;;;;4953558;28;20401;-68
2023/08/03 09:37:07;;;;;;;5.57;1.13;;;21.80;99.90;;;;;;4968512;28;20094;-68
2023/08/03 09:39:34;;;;;;;3.63;0.50;;;21.80;99.90;;;;;;4953485;29;20090;-69
2023/08/03 09:42:07;;;;;;;4.30;0.68;;;22.00;99.90;;;;;;4968616;28;20043;-68
2023/08/03 09:44:33;;;;;;;2.85;0.45;;;22.20;99.90;;;;;;4936884;29;20094;-69
2023/08/03 09:47:03;;;;;;;3.17;0.82;;;22.50;99.90;;;;;;4968818;28;20043;-69
2023/08/03 09:49:32;;;;;;;2.83;0.40;;;22.50;99.90;;;;;;4969029;28;20070;-68
2023/08/03 09:52:05;;;;;;;2.47;0.70;;;22.40;99.90;;;;;;4936214;29;20086;-68
2023/08/03 09:54:55;;;;;;;3.92;0.68;;;22.30;99.90;;;;;;4936678;29;20120;-69
2023/08/03 10:01:04;;;;;;;5.55;0.60;;;22.10;99.90;;;;;;4954267;29;20042;-69
2023/08/03 10:03:31;;;;;;;2.17;0.40;;;22.20;99.90;;;;;;4968364;28;20122;-69
2023/08/03 10:06:10;;;;;;;3.92;0.90;;;22.30;99.90;;;;;;4953434;29;20394;-69
2023/08/03 10:08:56;;;;;;;2.45;0.70;;;22.40;99.90;;;;;;4968440;28;20055;-69
2023/08/03 10:11:26;;;;;;;4.72;0.52;;;22.60;99.90;;;;;;4954212;29;20501;-69
2023/08/03 10:13:55;;;;;;;4.72;0.73;;;22.80;99.90;;;;;;4954464;29;20079;-69
2023/08/03 10:16:20;;;;;;;3.60;0.50;;;22.60;99.90;;;;;;4968280;28;20082;-69
2023/08/03 10:18:47;;;;;;;2.58;0.50;;;22.50;99.90;;;;;;4954244;29;20067;-69
2023/08/03 10:25:17;;;;;;;4.63;1.00;;;22.70;99.90;;;;;;4953962;29;20495;-69
2023/08/03 10:28:12;;;;;;;6.50;1.02;;;22.90;99.90;;;;;;4953591;29;20047;-68
2023/08/03 10:34:26;;;;;;;3.90;1.38;;;22.80;99.90;;;;;;4953152;28;20116;-69
2023/08/03 10:36:55;;;;;;;2.95;0.43;;;22.80;99.90;;;;;;4957328;29;20195;-69
2023/08/03 10:39:49;;;;;;;5.38;0.50;;;22.80;99.90;;;;;;4957044;29;20054;-69
2023/08/03 10:42:25;;;;;;;7.15;0.90;;;22.70;99.90;;;;;;4957692;29;20027;-69
2023/08/03 10:48:36;;;;;;;3.33;0.90;;;22.80;99.90;;;;;;4957276;29;20421;-69
2023/08/03 10:51:03;;;;;;;3.70;0.60;;;22.90;99.90;;;;;;4940339;29;20583;-68
2023/08/03 10:57:15;;;;;;;2.17;0.68;;;23.20;99.90;;;;;;4957195;29;20047;-69
2023/08/03 10:59:45;;;;;;;1.98;0.40;;;23.30;99.90;;;;;;4956899;28;20093;-69
2023/08/03 11:02:12;;;;;;;4.15;0.50;;;23.20;99.90;;;;;;4957465;29;20074;-69
2023/08/03 11:04:39;;;;;;;3.67;0.70;;;23.40;99.90;;;;;;4972492;28;20536;-69
2023/08/03 11:10:49;;;;;;;3.90;0.70;;;23.00;99.90;;;;;;4955422;29;20090;-69
2023/08/03 11:13:15;;;;;;;4.75;0.90;;;23.10;99.90;;;;;;4971170;28;20054;-69
2023/08/03 11:19:27;;;;;;;2.80;0.85;;;23.40;99.90;;;;;;4955891;28;20481;-69
2023/08/03 11:21:53;;;;;;;2.22;0.57;;;23.40;99.90;;;;;;4938559;29;20055;-69
2023/08/03 11:27:59;;;;;;;7.10;0.93;;;22.90;99.90;;;;;;4955088;29;20051;-69
2023/08/03 11:34:05;;;;;;;2.65;0.50;;;23.10;99.90;;;;;;4955731;29;20485;-69
2023/08/03 11:36:31;;;;;;;2.65;0.50;;;23.30;99.90;;;;;;4954707;29;20074;-69
2023/08/03 11:42:39;;;;;;;2.92;0.60;;;23.50;99.90;;;;;;4956162;29;20066;-69
2023/08/03 11:45:06;;;;;;;2.92;0.90;;;23.60;99.90;;;;;;4955420;29;20047;-68
2023/08/03 11:47:42;;;;;;;1.63;0.47;;;23.80;99.90;;;;;;4951904;28;20054;-69
2023/08/03 11:50:08;;;;;;;6.60;0.70;;;23.80;99.90;;;;;;4955255;29;20047;-69
2023/08/03 11:52:33;;;;;;;4.18;0.93;;;24.00;99.90;;;;;;4955362;29;20122;-69
2023/08/03 11:54:59;;;;;;;4.43;0.95;;;23.90;99.90;;;;;;4955279;29;20042;-69
2023/08/03 12:03:49;;;;;;;1.77;0.40;;;23.60;99.90;;;;;;4954444;29;20042;-69
2023/08/03 12:09:55;;;;;;;2.72;0.80;;;23.30;99.90;;;;;;4955191;29;20094;-69
2023/08/03 12:12:21;;;;;;;2.95;0.82;;;22.90;99.90;;;;;;4954935;29;20043;-69
2023/08/03 12:18:27;;;;;;;4.30;0.90;;;22.90;99.90;;;;;;4954691;29;20147;-69
2023/08/03 12:24:34;;;;;;;6.00;0.80;;;22.50;99.90;;;;;;4955018;29;20101;-69
2023/08/03 12:30:40;;;;;;;3.72;0.80;;;22.40;99.90;;;;;;4953956;29;20059;-69
2023/08/03 12:36:47;;;;;;;3.10;0.60;;;22.50;99.90;;;;;;4954326;29;20042;-69
2023/08/03 12:39:12;;;;;;;2.75;0.65;;;22.80;99.90;;;;;;4937389;29;20059;-69
2023/08/03 12:41:38;;;;;;;2.70;0.30;;;22.70;99.90;;;;;;4936428;29;20059;-69
2023/08/03 12:44:04;;;;;;;2.80;0.35;;;22.70;99.90;;;;;;4954177;29;20482;-69
2023/08/03 12:50:11;;;;;;;1.40;0.47;;;22.80;99.90;;;;;;4953886;29;20198;-68
2023/08/03 12:56:18;;;;;;;6.10;1.08;;;22.70;99.90;;;;;;4953540;29;20041;-68
2023/08/03 12:58:43;;;;;;;2.78;0.70;;;22.60;99.90;;;;;;4953215;28;20039;-68
2023/08/03 13:01:09;;;;;;;5.88;0.80;;;22.40;99.90;;;;;;4936946;29;20623;-69
2023/08/03 13:03:36;;;;;;;6.97;1.33;;;22.40;99.90;;;;;;4936847;29;20382;-68
2023/08/03 13:09:43;;;;;;;6.35;1.10;;;22.30;99.90;;;;;;4953315;29;20236;-69
2023/08/03 13:12:14;;;;;;;4.28;1.10;;;22.00;99.90;;;;;;4953927;29;20109;-68
2023/08/03 13:18:20;;;;;;;7.22;1.15;;;21.60;99.90;;;;;;4953191;29;20078;-68
2023/08/03 13:24:27;;;;;;;5.03;1.08;;;21.20;99.90;;;;;;4953671;29;20414;-68
2023/08/03 13:30:33;;;;;;;3.03;0.50;;;21.10;99.90;;;;;;4954279;29;20054;-68
2023/08/03 13:32:59;;;;;;;4.32;0.77;;;21.00;99.90;;;;;;4953547;29;20043;-68
2023/08/03 13:39:05;;;;;;;6.65;1.48;;;20.50;99.90;;;;;;4952864;29;20038;-68
2023/08/03 13:41:31;;;;;;;7.57;1.45;;;20.30;99.90;;;;;;4953257;29;20035;-68
2023/08/03 13:43:56;;;;;;;4.78;1.58;;;20.20;99.90;;;;;;4936097;29;20061;-68
2023/08/03 13:50:03;;;;;;;5.95;1.67;;;20.10;99.90;;;;;;4953146;29;20127;-69
2023/08/03 13:52:28;;;;;;;7.00;1.83;;;20.00;99.90;;;;;;4936231;29;20558;-69
2023/08/03 13:54:54;;;;;;;6.80;1.25;;;19.90;99.90;;;;;;4954271;29;20039;-69
2023/08/03 14:01:00;;;;;;;9.13;2.50;;;19.90;99.90;;;;;;4953635;29;20038;-70
2023/08/03 14:03:26;;;;;;;9.68;2.45;;;19.80;99.90;;;;;;4936658;29;20039;-71
2023/08/03 14:05:51;;;;;;;10.02;2.25;;;19.80;99.90;;;;;;4920219;29;20485;-70
2023/08/03 14:08:17;;;;;;;10.30;2.80;;;19.90;99.90;;;;;;4953720;29;20478;-71
2023/08/03 14:14:23;;;;;;;8.52;2.63;;;20.20;99.90;;;;;;4954176;29;20065;-72
2023/08/03 14:24:11;;;;;;;8.05;2.60;;;20.40;99.90;;;;;;4953866;29;20038;-70
2023/08/03 14:30:18;;;;;;;8.75;2.00;;;20.40;99.90;;;;;;4953534;29;20050;-71
2023/08/03 14:36:25;;;;;;;7.90;2.05;;;20.60;99.90;;;;;;4953468;29;20034;-71
2023/08/03 14:42:31;;;;;;;8.13;2.08;;;20.50;99.90;;;;;;4953365;29;20046;-71
2023/08/03 14:48:38;;;;;;;7.00;1.73;;;20.50;99.90;;;;;;4950369;29;20099;-71
2023/08/03 14:54:45;;;;;;;9.68;2.03;;;20.40;99.90;;;;;;4952127;29;20034;-71